createdAt,value
2022-09-24T00:01:20.210Z,15.00
2022-09-24T00:06:23.523Z,15.00
2022-09-24T00:11:28.593Z,14.90
2022-09-24T00:16:34.638Z,14.90
2022-09-24T00:21:38.105Z,14.90
2022-09-24T00:31:53.036Z,14.80
2022-09-24T00:36:55.131Z,14.80
2022-09-24T00:41:57.164Z,14.70
2022-09-24T00:46:59.266Z,14.70
2022-09-24T00:52:01.864Z,14.70
2022-09-24T00:57:04.140Z,14.50
2022-09-24T01:02:07.463Z,14.40
2022-09-24T01:07:10.009Z,14.30
2022-09-24T01:12:39.101Z,14.30
2022-09-24T01:17:54.129Z,14.20
2022-09-24T01:22:58.892Z,14.10
2022-09-24T01:28:07.176Z,14.00
2022-09-24T01:33:16.059Z,13.90
2022-09-24T01:38:22.308Z,13.80
2022-09-24T01:43:27.326Z,13.80
2022-09-24T01:48:30.260Z,13.60
2022-09-24T01:53:47.168Z,13.40
2022-09-24T01:59:01.596Z,13.30
2022-09-24T02:04:11.868Z,13.10
2022-09-24T02:09:35.431Z,13.10
2022-09-24T02:14:44.174Z,13.00
2022-09-24T02:19:48.284Z,12.90
2022-09-24T02:24:53.748Z,12.80
2022-09-24T02:29:57.337Z,12.70
2022-09-24T02:35:03.487Z,12.70
2022-09-24T02:40:08.335Z,12.70
2022-09-24T02:45:11.794Z,12.60
2022-09-24T02:50:13.873Z,12.40
2022-09-24T02:55:15.970Z,12.20
2022-09-24T03:00:20.891Z,12.40
2022-09-24T03:05:22.891Z,12.20
2022-09-24T03:10:25.140Z,12.20
2022-09-24T03:15:27.183Z,12.20
2022-09-24T03:20:29.797Z,12.20
2022-09-24T03:25:32.186Z,12.10
2022-09-24T03:30:52.984Z,12.10
2022-09-24T03:36:11.114Z,12.00
2022-09-24T03:41:13.541Z,12.00
2022-09-24T03:46:17.138Z,11.90
2022-09-24T03:56:22.154Z,11.80
2022-09-24T04:01:24.257Z,11.80
2022-09-24T04:06:26.936Z,11.80
2022-09-24T04:11:28.996Z,11.80
2022-09-24T04:16:31.078Z,11.80
2022-09-24T04:21:33.140Z,11.80
2022-09-24T04:26:35.235Z,11.70
2022-09-24T04:31:39.513Z,11.70
2022-09-24T04:36:41.590Z,11.80
2022-09-24T04:41:43.903Z,11.60
2022-09-24T04:46:46.063Z,11.50
2022-09-24T04:51:48.084Z,11.50
2022-09-24T04:56:50.109Z,11.50
2022-09-24T05:01:54.316Z,11.50
2022-09-24T05:06:57.005Z,11.60
2022-09-24T05:11:59.605Z,11.60
2022-09-24T05:17:01.610Z,11.60
2022-09-24T05:22:03.690Z,11.60
2022-09-24T05:27:11.690Z,11.70
2022-09-24T05:32:15.949Z,11.80
2022-09-24T05:37:18.372Z,11.80
2022-09-24T05:42:20.585Z,11.80
2022-09-24T05:47:22.582Z,11.90
2022-09-24T05:52:24.695Z,12.00
2022-09-24T06:02:29.325Z,12.20
2022-09-24T06:07:31.387Z,12.30
2022-09-24T06:12:36.658Z,12.40
2022-09-24T06:17:38.716Z,12.40
2022-09-24T06:22:40.815Z,12.40
2022-09-24T06:27:42.788Z,12.60
2022-09-24T06:32:44.809Z,12.80
2022-09-24T06:37:49.081Z,12.90
2022-09-24T06:42:52.530Z,13.00
2022-09-24T06:47:58.769Z,13.10
2022-09-24T07:03:06.894Z,13.90
2022-09-24T07:08:09.049Z,14.00
2022-09-24T07:13:13.166Z,14.40
2022-09-24T07:18:15.347Z,14.40
2022-09-24T07:23:18.437Z,14.80
2022-09-24T07:28:20.501Z,15.00
2022-09-24T07:33:22.528Z,15.00
2022-09-24T07:38:25.548Z,15.30
2022-09-24T07:43:28.467Z,15.70
2022-09-24T07:48:30.411Z,15.70
2022-09-24T07:53:32.486Z,15.90
2022-09-24T07:58:35.512Z,16.00
2022-09-24T08:03:37.547Z,16.10
2022-09-24T08:08:40.170Z,16.40
2022-09-24T08:13:42.191Z,16.60
2022-09-24T08:18:44.683Z,16.60
2022-09-24T08:23:46.923Z,17.00
2022-09-24T08:28:51.343Z,17.20
2022-09-24T08:33:53.391Z,17.20
2022-09-24T08:38:55.615Z,17.30
2022-09-24T08:44:00.482Z,17.40
2022-09-24T08:49:05.113Z,17.60
2022-09-24T08:54:14.368Z,17.70
2022-09-24T08:59:38.456Z,17.80
2022-09-24T09:04:49.696Z,18.00
2022-09-24T09:10:15.389Z,18.10
2022-09-24T09:15:28.931Z,18.30
2022-09-24T09:20:32.602Z,18.40
2022-09-24T09:25:36.823Z,18.80
2022-09-24T09:30:43.431Z,18.80
2022-09-24T09:35:53.192Z,19.10
2022-09-24T09:41:32.989Z,19.00
2022-09-24T09:46:42.274Z,19.30
2022-09-24T09:51:46.945Z,19.50
2022-09-24T09:56:50.064Z,19.70
2022-09-24T10:01:55.854Z,19.70
2022-09-24T10:07:11.143Z,19.90
2022-09-24T10:12:21.174Z,20.00
2022-09-24T10:17:28.865Z,20.00
2022-09-24T10:22:31.314Z,20.00
2022-09-24T10:27:37.051Z,20.10
2022-09-24T10:32:40.690Z,20.20
2022-09-24T10:37:54.717Z,20.30
2022-09-24T10:43:02.188Z,20.10
2022-09-24T10:48:16.765Z,20.60
2022-09-24T10:53:49.841Z,20.60
2022-09-24T10:59:21.090Z,20.90
2022-09-24T11:04:37.931Z,21.10
2022-09-24T11:10:05.284Z,21.20
2022-09-24T11:15:29.148Z,21.60
2022-09-24T11:20:36.669Z,22.00
2022-09-24T11:25:44.451Z,22.10
2022-09-24T11:31:04.228Z,22.30
2022-09-24T11:36:36.743Z,22.20
2022-09-24T11:42:03.445Z,22.30
2022-09-24T11:47:14.224Z,22.50
2022-09-24T11:52:34.360Z,22.50
2022-09-24T11:57:49.096Z,22.60
2022-09-24T12:03:04.086Z,23.00
2022-09-24T12:08:56.176Z,23.20
2022-09-24T12:14:24.089Z,23.40
2022-09-24T12:19:41.786Z,23.50
2022-09-24T12:24:54.626Z,23.80
2022-09-24T12:30:34.033Z,24.10
2022-09-24T12:35:55.806Z,24.40
2022-09-24T12:41:23.257Z,24.70
2022-09-24T12:46:33.130Z,24.80
2022-09-24T12:51:38.177Z,25.00
2022-09-24T12:56:40.955Z,25.00
2022-09-24T13:01:43.146Z,24.90
2022-09-24T13:06:48.090Z,24.90
2022-09-24T13:12:03.797Z,24.90
2022-09-24T13:17:07.213Z,25.00
2022-09-24T13:22:34.454Z,25.10
2022-09-24T13:27:39.795Z,25.10
2022-09-24T13:32:59.568Z,25.10
2022-09-24T13:38:09.272Z,25.30
2022-09-24T13:43:17.829Z,25.40
2022-09-24T13:48:45.134Z,25.40
2022-09-24T13:53:54.968Z,25.30
2022-09-24T13:59:12.074Z,25.10
2022-09-24T14:04:22.675Z,25.00
2022-09-24T14:09:33.956Z,25.00
2022-09-24T14:14:36.301Z,24.80
2022-09-24T14:19:38.481Z,24.50
2022-09-24T14:24:48.131Z,24.50
2022-09-24T14:29:56.873Z,24.30
2022-09-24T14:35:03.586Z,24.30
2022-09-24T14:40:24.945Z,24.20
2022-09-24T14:45:34.246Z,24.30
2022-09-24T14:50:40.754Z,24.30
2022-09-24T14:55:46.453Z,24.50
2022-09-24T15:00:51.106Z,25.00
2022-09-24T15:06:01.587Z,25.10
2022-09-24T15:11:06.578Z,25.40
2022-09-24T15:16:40.069Z,25.30
2022-09-24T15:21:42.514Z,25.00
2022-09-24T15:26:46.131Z,24.80
2022-09-24T15:31:48.209Z,24.70
2022-09-24T15:36:56.654Z,24.40
2022-09-24T15:41:58.679Z,23.90
2022-09-24T15:47:00.778Z,23.80
2022-09-24T15:52:13.998Z,23.30
2022-09-24T15:57:16.591Z,23.00
2022-09-24T16:02:29.640Z,22.70
2022-09-24T16:07:31.672Z,22.10
2022-09-24T16:12:33.844Z,21.70
2022-09-24T16:17:36.013Z,21.60
2022-09-24T16:22:38.108Z,21.00
2022-09-24T16:27:40.785Z,20.10
2022-09-24T16:32:42.747Z,20.50
2022-09-24T16:37:44.817Z,19.20
2022-09-24T16:42:46.820Z,18.80
2022-09-24T16:47:48.964Z,18.80
2022-09-24T16:52:54.647Z,18.20
2022-09-24T16:57:57.096Z,18.00
2022-09-24T17:02:59.569Z,18.00
2022-09-24T17:08:01.793Z,17.70
2022-09-24T17:13:03.968Z,17.50
2022-09-24T17:18:06.094Z,17.40
2022-09-24T17:23:08.186Z,17.30
2022-09-24T17:28:12.024Z,17.20
2022-09-24T17:33:41.349Z,17.10
2022-09-24T17:38:36.789Z,17.00
2022-09-24T17:43:40.174Z,16.90
2022-09-24T17:48:44.710Z,16.80
2022-09-24T17:53:47.293Z,16.90
2022-09-24T17:58:49.730Z,16.80
2022-09-24T18:03:57.341Z,16.80
2022-09-24T18:09:00.936Z,16.80
2022-09-24T18:14:03.155Z,16.80
2022-09-24T18:19:05.729Z,16.80
2022-09-24T18:24:10.151Z,16.70
2022-09-24T18:29:15.394Z,16.60
2022-09-24T18:34:17.477Z,16.60
2022-09-24T18:39:25.051Z,16.60
2022-09-24T18:44:27.768Z,16.60
2022-09-24T18:49:29.796Z,16.60
2022-09-24T18:54:31.781Z,16.50
2022-09-24T18:59:44.564Z,16.50
2022-09-24T19:04:46.575Z,16.50
2022-09-24T19:09:48.601Z,16.50
2022-09-24T19:14:54.029Z,16.50
2022-09-24T19:19:56.156Z,13.10
2022-09-24T19:24:58.319Z,16.60
2022-09-24T19:30:01.016Z,16.70
2022-09-24T19:35:04.051Z,16.80
2022-09-24T19:40:07.178Z,16.80
2022-09-24T19:45:10.136Z,16.90
2022-09-24T19:50:17.497Z,16.90
2022-09-24T19:55:21.800Z,16.90
2022-09-24T20:00:26.965Z,16.90
2022-09-24T20:05:30.002Z,16.90
2022-09-24T20:10:36.142Z,16.90
2022-09-24T20:15:39.610Z,16.90
2022-09-24T20:20:41.778Z,16.90
2022-09-24T20:26:08.545Z,16.90
2022-09-24T20:31:12.572Z,16.90
2022-09-24T20:36:18.799Z,16.90
2022-09-24T20:41:25.117Z,16.90
2022-09-24T20:46:28.612Z,16.80
2022-09-24T20:51:33.575Z,16.90
2022-09-24T20:56:35.754Z,16.90
2022-09-24T21:01:39.092Z,16.90
2022-09-24T21:06:41.207Z,16.90
2022-09-24T21:11:43.909Z,16.90
2022-09-24T21:16:46.615Z,16.90
2022-09-24T21:21:48.692Z,16.90
2022-09-24T21:26:50.769Z,16.90
2022-09-24T21:31:52.857Z,16.90
2022-09-24T21:36:54.903Z,16.90
2022-09-24T21:41:59.138Z,16.90
2022-09-24T21:47:01.253Z,16.90
2022-09-24T21:52:05.821Z,16.90
2022-09-24T21:57:07.876Z,16.90
2022-09-24T22:02:11.028Z,16.90
2022-09-24T22:07:14.976Z,16.80
2022-09-24T22:12:17.183Z,16.80
2022-09-24T22:17:20.378Z,16.80
2022-09-24T22:22:22.401Z,16.80
2022-09-24T22:27:24.442Z,16.80
2022-09-24T22:32:26.551Z,16.80
2022-09-24T22:37:28.594Z,16.80
2022-09-24T22:42:30.695Z,16.80
2022-09-24T22:47:32.810Z,16.80
2022-09-24T22:52:35.843Z,16.80
2022-09-24T22:57:37.891Z,16.80
2022-09-24T23:02:39.984Z,16.80
2022-09-24T23:07:42.926Z,16.90
2022-09-24T23:12:44.959Z,16.90
2022-09-24T23:17:47.606Z,16.80
2022-09-24T23:22:49.727Z,17.20
2022-09-24T23:27:51.815Z,16.80
2022-09-24T23:37:56.495Z,16.80
2022-09-24T23:42:59.285Z,16.90
2022-09-24T23:48:01.514Z,16.80
2022-09-24T23:53:05.021Z,16.80
2022-09-24T23:58:07.147Z,16.80
